createdAt,value
2022-08-16T00:01:24.577Z,5.73
2022-08-16T00:03:55.304Z,11.43
2022-08-16T00:06:24.643Z,4.50
2022-08-16T00:08:53.029Z,7.70
2022-08-16T00:11:22.260Z,4.40
2022-08-16T00:13:53.604Z,4.83
2022-08-16T00:17:05.551Z,4.17
2022-08-16T00:19:15.256Z,7.50
2022-08-16T00:21:44.464Z,4.00
2022-08-16T00:24:13.401Z,4.23
2022-08-16T00:26:59.789Z,5.77
2022-08-16T00:29:29.869Z,5.73
2022-08-16T00:32:05.395Z,5.83
2022-08-16T00:34:44.607Z,5.77
2022-08-16T00:37:24.454Z,5.30
2022-08-16T00:39:57.115Z,6.33
2022-08-16T00:42:30.423Z,6.10
2022-08-16T00:45:08.152Z,6.00
2022-08-16T00:47:37.767Z,5.20
2022-08-16T00:50:11.398Z,5.30
2022-08-16T00:52:50.231Z,4.70
2022-08-16T00:55:22.214Z,5.30
2022-08-16T00:57:58.730Z,6.17
2022-08-16T01:00:30.508Z,8.13
2022-08-16T01:03:02.269Z,5.43
2022-08-16T01:05:33.849Z,4.93
2022-08-16T01:08:02.826Z,3.33
2022-08-16T01:10:52.975Z,3.37
2022-08-16T01:13:26.700Z,3.67
2022-08-16T01:16:01.128Z,4.40
2022-08-16T01:18:40.558Z,3.10
2022-08-16T01:21:22.125Z,4.30
2022-08-16T01:24:51.723Z,5.30
2022-08-16T01:27:15.304Z,3.00
2022-08-16T01:29:58.253Z,4.03
2022-08-16T01:32:33.883Z,5.60
2022-08-16T01:35:07.387Z,4.07
2022-08-16T01:37:43.647Z,4.17
2022-08-16T01:40:26.461Z,3.43
2022-08-16T01:42:57.581Z,5.10
2022-08-16T01:45:40.795Z,5.70
2022-08-16T01:48:19.693Z,5.17
2022-08-16T01:51:08.811Z,3.57
2022-08-16T01:53:41.222Z,4.57
2022-08-16T01:56:27.482Z,3.23
2022-08-16T01:59:00.284Z,3.43
2022-08-16T02:01:29.552Z,7.33
2022-08-16T02:04:10.094Z,3.40
2022-08-16T02:06:45.968Z,4.80
2022-08-16T02:09:20.903Z,2.70
2022-08-16T02:11:57.794Z,3.67
2022-08-16T02:14:30.762Z,4.40
2022-08-16T02:17:02.690Z,4.10
2022-08-16T02:19:59.255Z,4.03
2022-08-16T02:22:34.814Z,4.23
2022-08-16T02:25:10.686Z,3.57
2022-08-16T02:27:40.960Z,3.40
2022-08-16T02:30:37.612Z,3.63
2022-08-16T02:33:06.176Z,8.13
2022-08-16T02:35:53.655Z,6.53
2022-08-16T02:38:26.615Z,3.50
2022-08-16T02:40:55.488Z,3.97
2022-08-16T02:43:26.735Z,3.20
2022-08-16T02:45:59.096Z,2.90
2022-08-16T02:48:31.189Z,2.90
2022-08-16T02:51:10.222Z,3.73
2022-08-16T02:53:43.917Z,5.03
2022-08-16T02:56:15.928Z,3.80
2022-08-16T02:58:45.839Z,3.80
2022-08-16T03:01:24.101Z,3.23
2022-08-16T03:04:28.811Z,3.60
2022-08-16T03:06:57.641Z,4.20
2022-08-16T03:09:44.234Z,3.77
2022-08-16T03:12:16.335Z,4.40
2022-08-16T03:14:47.693Z,4.77
2022-08-16T03:17:19.804Z,3.13
2022-08-16T03:19:59.519Z,4.20
2022-08-16T03:22:34.339Z,3.93
2022-08-16T03:25:10.685Z,3.07
2022-08-16T03:27:42.763Z,4.23
2022-08-16T03:30:18.255Z,3.20
2022-08-16T03:33:17.619Z,3.70
2022-08-16T03:35:57.214Z,2.97
2022-08-16T03:38:34.125Z,2.70
2022-08-16T03:41:14.348Z,2.80
2022-08-16T03:43:57.253Z,2.70
2022-08-16T03:46:47.398Z,3.40
2022-08-16T03:49:36.460Z,3.10
2022-08-16T03:52:07.964Z,2.90
2022-08-16T03:54:38.015Z,3.50
2022-08-16T03:57:06.810Z,3.30
2022-08-16T03:59:40.154Z,3.93
2022-08-16T04:02:22.571Z,4.83
2022-08-16T04:05:04.024Z,3.13
2022-08-16T04:07:33.707Z,4.20
2022-08-16T04:10:35.744Z,3.50
2022-08-16T04:12:55.439Z,3.73
2022-08-16T04:15:29.560Z,2.60
2022-08-16T04:18:18.894Z,1.83
2022-08-16T04:20:49.954Z,3.60
2022-08-16T04:23:19.786Z,3.03
2022-08-16T04:25:48.941Z,3.80
2022-08-16T04:28:51.967Z,3.10
2022-08-16T04:31:13.308Z,3.00
2022-08-16T04:33:51.207Z,2.77
2022-08-16T04:36:24.649Z,3.73
2022-08-16T04:38:53.740Z,3.90
2022-08-16T04:41:32.816Z,3.07
2022-08-16T04:44:31.014Z,3.17
2022-08-16T04:47:03.162Z,3.07
2022-08-16T04:49:43.979Z,2.70
2022-08-16T04:52:33.693Z,4.23
2022-08-16T04:55:07.444Z,4.07
2022-08-16T04:57:38.177Z,3.70
2022-08-16T05:00:30.234Z,3.90
2022-08-16T05:03:07.535Z,4.07
2022-08-16T05:05:44.949Z,3.00
2022-08-16T05:08:30.548Z,3.20
2022-08-16T05:11:09.914Z,2.60
2022-08-16T05:13:42.561Z,6.27
2022-08-16T05:16:24.052Z,2.93
2022-08-16T05:19:04.923Z,2.50
2022-08-16T05:21:38.863Z,3.57
2022-08-16T05:24:12.465Z,2.93
2022-08-16T05:26:43.439Z,2.60
2022-08-16T05:29:20.553Z,3.30
2022-08-16T05:32:05.210Z,4.33
2022-08-16T05:34:53.524Z,3.30
2022-08-16T05:37:24.596Z,4.60
2022-08-16T05:39:55.821Z,3.20
2022-08-16T05:42:35.658Z,4.80
2022-08-16T05:45:07.187Z,5.13
2022-08-16T05:47:43.306Z,5.03
2022-08-16T05:50:19.216Z,3.77
2022-08-16T05:52:49.619Z,3.20
2022-08-16T05:55:20.515Z,4.10
2022-08-16T05:57:52.777Z,2.00
2022-08-16T06:00:22.382Z,3.20
2022-08-16T06:02:52.178Z,6.43
2022-08-16T06:05:41.579Z,2.77
2022-08-16T06:08:16.457Z,4.47
2022-08-16T06:11:01.704Z,3.40
2022-08-16T06:13:42.335Z,2.60
2022-08-16T06:16:18.281Z,4.20
2022-08-16T06:18:48.526Z,3.47
2022-08-16T06:21:22.693Z,3.50
2022-08-16T06:23:55.093Z,4.10
2022-08-16T06:26:37.054Z,3.17
2022-08-16T06:29:09.230Z,2.90
2022-08-16T06:31:46.921Z,3.20
2022-08-16T06:34:56.149Z,1.90
2022-08-16T06:37:10.607Z,2.97
2022-08-16T06:39:49.353Z,4.37
2022-08-16T06:42:30.237Z,3.20
2022-08-16T06:45:38.013Z,3.17
2022-08-16T06:48:18.875Z,3.63
2022-08-16T06:50:52.075Z,3.90
2022-08-16T06:53:21.579Z,4.00
2022-08-16T06:56:01.052Z,3.10
2022-08-16T06:58:43.069Z,2.87
2022-08-16T07:01:19.120Z,5.20
2022-08-16T07:03:55.846Z,2.90
2022-08-16T07:06:31.467Z,2.67
2022-08-16T07:09:03.019Z,4.00
2022-08-16T07:11:47.447Z,2.70
2022-08-16T07:14:27.289Z,4.20
2022-08-16T07:16:59.879Z,6.80
2022-08-16T07:19:33.733Z,4.63
2022-08-16T07:22:37.116Z,3.07
2022-08-16T07:25:22.820Z,3.17
2022-08-16T07:27:52.046Z,3.53
2022-08-16T07:30:39.906Z,3.50
2022-08-16T07:33:52.132Z,6.20
2022-08-16T07:36:13.234Z,4.20
2022-08-16T07:38:50.588Z,6.03
2022-08-16T07:41:19.140Z,4.87
2022-08-16T07:43:52.777Z,5.70
2022-08-16T07:46:38.725Z,3.13
2022-08-16T07:49:15.743Z,4.53
2022-08-16T07:51:47.733Z,4.37
2022-08-16T07:54:21.267Z,3.10
2022-08-16T07:57:02.958Z,3.37
2022-08-16T07:59:45.716Z,4.53
2022-08-16T08:02:19.609Z,4.00
2022-08-16T08:04:51.668Z,3.03
2022-08-16T08:07:20.914Z,3.23
2022-08-16T08:09:51.507Z,3.00
2022-08-16T08:12:32.068Z,3.50
2022-08-16T08:15:04.071Z,5.60
2022-08-16T08:17:42.946Z,3.90
2022-08-16T08:20:28.596Z,3.77
2022-08-16T08:23:01.818Z,11.10
2022-08-16T08:25:55.376Z,7.67
2022-08-16T08:28:31.893Z,5.07
2022-08-16T08:31:04.365Z,5.80
2022-08-16T08:33:43.847Z,5.87
2022-08-16T08:36:21.933Z,5.87
2022-08-16T08:38:52.466Z,5.73
2022-08-16T08:41:28.312Z,4.60
2022-08-16T08:43:58.620Z,6.40
2022-08-16T08:46:27.355Z,5.57
2022-08-16T08:49:02.083Z,3.43
2022-08-16T08:51:41.221Z,6.17
2022-08-16T08:54:20.566Z,4.13
2022-08-16T08:56:53.717Z,4.93
2022-08-16T08:59:51.297Z,9.03
2022-08-16T09:02:21.566Z,2.80
2022-08-16T09:04:59.244Z,3.20
2022-08-16T09:07:27.664Z,3.13
2022-08-16T09:10:06.263Z,4.80
2022-08-16T09:12:38.391Z,6.77
2022-08-16T09:15:13.761Z,8.40
2022-08-16T09:17:51.861Z,2.93
2022-08-16T09:20:25.586Z,6.07
2022-08-16T09:22:55.254Z,4.07
2022-08-16T09:25:35.337Z,3.10
2022-08-16T09:28:09.258Z,3.17
2022-08-16T09:30:55.811Z,3.43
2022-08-16T09:33:24.538Z,4.37
2022-08-16T09:35:54.759Z,4.30
2022-08-16T09:38:32.466Z,3.47
2022-08-16T09:41:02.293Z,4.67
2022-08-16T09:43:59.131Z,4.40
2022-08-16T09:46:44.945Z,3.70
2022-08-16T09:49:09.625Z,5.63
2022-08-16T09:51:42.474Z,5.10
2022-08-16T09:54:17.095Z,4.00
2022-08-16T09:56:52.461Z,4.27
2022-08-16T09:59:22.682Z,4.27
2022-08-16T10:01:51.802Z,3.73
2022-08-16T10:04:31.499Z,3.97
2022-08-16T10:07:15.163Z,4.20
2022-08-16T10:09:54.588Z,4.10
2022-08-16T10:12:44.205Z,4.97
2022-08-16T10:15:17.159Z,3.50
2022-08-16T10:18:00.071Z,3.83
2022-08-16T10:20:34.046Z,3.57
2022-08-16T10:23:07.145Z,4.10
2022-08-16T10:27:00.647Z,10.07
2022-08-16T10:28:28.578Z,4.03
2022-08-16T10:30:59.210Z,5.20
2022-08-16T10:33:29.610Z,3.60
2022-08-16T10:36:04.012Z,3.73
2022-08-16T10:38:36.707Z,4.70
2022-08-16T10:41:07.035Z,4.20
2022-08-16T10:43:36.343Z,4.30
2022-08-16T10:46:40.119Z,4.17
2022-08-16T10:48:53.542Z,9.03
2022-08-16T10:51:33.676Z,4.40
2022-08-16T10:54:28.697Z,4.20
2022-08-16T10:56:59.220Z,3.73
2022-08-16T10:59:38.415Z,4.30
2022-08-16T11:02:59.320Z,4.20
2022-08-16T11:05:05.958Z,4.37
2022-08-16T11:07:43.107Z,4.57
2022-08-16T11:11:05.068Z,3.73
2022-08-16T11:16:00.781Z,4.60
2022-08-16T11:18:48.830Z,4.10
2022-08-16T11:21:28.503Z,4.40
2022-08-16T11:23:59.640Z,4.40
2022-08-16T11:26:29.827Z,4.03
2022-08-16T11:29:15.036Z,7.13
2022-08-16T11:31:46.058Z,4.30
2022-08-16T11:34:22.610Z,4.40
2022-08-16T11:36:59.301Z,4.60
2022-08-16T11:39:30.166Z,5.80
2022-08-16T11:42:01.660Z,4.40
2022-08-16T11:44:56.064Z,3.70
2022-08-16T11:47:19.457Z,4.83
2022-08-16T11:49:48.658Z,4.80
2022-08-16T11:52:18.363Z,4.53
2022-08-16T11:54:53.753Z,4.93
2022-08-16T11:57:27.637Z,5.00
2022-08-16T11:59:57.093Z,4.60
2022-08-16T12:02:31.919Z,5.07
2022-08-16T12:05:03.169Z,4.60
2022-08-16T12:07:31.590Z,7.33
2022-08-16T12:10:02.245Z,5.10
2022-08-16T12:12:32.811Z,9.40
2022-08-16T12:15:02.415Z,4.77
2022-08-16T12:17:32.478Z,5.37
2022-08-16T12:20:01.123Z,5.80
2022-08-16T12:22:29.600Z,4.70
2022-08-16T12:24:58.960Z,4.93
2022-08-16T12:27:28.047Z,5.63
2022-08-16T12:30:00.861Z,5.30
2022-08-16T12:32:37.663Z,4.93
2022-08-16T12:35:10.843Z,5.50
2022-08-16T12:37:39.942Z,4.43
2022-08-16T12:40:24.419Z,5.50
2022-08-16T12:42:58.642Z,5.63
2022-08-16T12:45:35.646Z,4.27
2022-08-16T12:48:39.632Z,4.70
2022-08-16T12:51:22.146Z,4.47
2022-08-16T12:53:54.287Z,5.20
2022-08-16T12:56:25.662Z,4.57
2022-08-16T12:58:55.880Z,4.40
2022-08-16T13:01:29.642Z,4.73
2022-08-16T13:04:20.601Z,4.50
2022-08-16T13:06:52.454Z,4.80
2022-08-16T13:09:26.657Z,4.40
2022-08-16T13:12:03.434Z,5.17
2022-08-16T13:14:35.518Z,4.80
2022-08-16T13:17:09.505Z,4.87
2022-08-16T13:20:06.068Z,5.47
2022-08-16T13:22:28.738Z,5.90
2022-08-16T13:24:59.937Z,5.00
2022-08-16T13:28:01.622Z,6.80
2022-08-16T13:30:36.537Z,6.57
2022-08-16T13:33:11.249Z,6.67
2022-08-16T13:35:43.230Z,7.13
2022-08-16T13:38:21.609Z,6.83
2022-08-16T13:40:56.033Z,5.73
2022-08-16T13:43:26.385Z,6.03
2022-08-16T13:45:56.019Z,4.90
2022-08-16T13:48:26.485Z,9.43
2022-08-16T13:51:15.800Z,6.00
2022-08-16T13:53:49.429Z,5.87
2022-08-16T13:56:25.328Z,5.67
2022-08-16T13:58:55.507Z,5.63
2022-08-16T14:01:24.827Z,6.33
2022-08-16T14:03:55.925Z,5.63
2022-08-16T14:06:24.474Z,6.23
2022-08-16T14:08:59.166Z,4.70
2022-08-16T14:11:34.695Z,4.37
2022-08-16T14:14:05.740Z,4.60
2022-08-16T14:16:35.357Z,4.40
2022-08-16T14:19:08.135Z,5.13
2022-08-16T14:21:37.323Z,6.20
2022-08-16T14:24:08.142Z,4.83
2022-08-16T14:26:55.073Z,7.20
2022-08-16T14:29:25.769Z,4.67
2022-08-16T14:31:58.791Z,4.43
2022-08-16T14:34:29.803Z,6.47
2022-08-16T14:36:59.577Z,4.83
2022-08-16T14:39:28.413Z,6.90
2022-08-16T14:41:57.141Z,4.83
2022-08-16T14:44:26.222Z,3.90
2022-08-16T14:46:55.875Z,4.27
2022-08-16T14:49:25.158Z,4.23
2022-08-16T14:51:55.198Z,4.10
2022-08-16T14:54:28.632Z,4.30
2022-08-16T14:56:59.001Z,4.30
2022-08-16T14:59:27.518Z,4.97
2022-08-16T15:02:00.773Z,4.43
2022-08-16T15:04:39.724Z,3.67
2022-08-16T15:07:21.595Z,4.20
2022-08-16T15:10:00.513Z,6.57
2022-08-16T15:12:33.893Z,4.03
2022-08-16T15:15:12.931Z,4.80
2022-08-16T15:17:54.604Z,4.27
2022-08-16T15:20:26.814Z,4.33
2022-08-16T15:22:57.717Z,5.10
2022-08-16T15:25:29.472Z,4.63
2022-08-16T15:27:58.646Z,5.10
2022-08-16T15:30:58.089Z,4.83
2022-08-16T15:33:19.634Z,5.40
2022-08-16T15:35:50.320Z,4.47
2022-08-16T15:38:56.783Z,4.90
2022-08-16T15:41:09.568Z,4.80
2022-08-16T15:43:41.506Z,4.70
2022-08-16T15:46:35.331Z,5.40
2022-08-16T15:49:13.953Z,5.10
2022-08-16T15:51:43.491Z,5.03
2022-08-16T15:54:21.191Z,5.03
2022-08-16T15:57:10.882Z,4.83
2022-08-16T15:59:48.717Z,5.10
2022-08-16T16:02:27.998Z,5.03
2022-08-16T16:05:01.942Z,5.30
2022-08-16T16:07:33.395Z,4.87
2022-08-16T16:10:05.635Z,5.20
2022-08-16T16:12:54.139Z,4.67
2022-08-16T16:15:29.308Z,4.90
2022-08-16T16:17:58.892Z,4.70
2022-08-16T16:20:29.167Z,5.50
2022-08-16T16:23:01.073Z,4.67
2022-08-16T16:25:31.144Z,5.30
2022-08-16T16:28:00.772Z,4.90
2022-08-16T16:30:32.981Z,5.70
2022-08-16T16:33:06.714Z,5.87
2022-08-16T16:35:36.367Z,6.03
2022-08-16T16:38:08.120Z,4.80
2022-08-16T16:40:46.303Z,4.83
2022-08-16T16:43:16.140Z,5.00
2022-08-16T16:45:45.005Z,5.53
2022-08-16T16:48:13.715Z,4.53
2022-08-16T16:50:46.959Z,5.07
2022-08-16T16:53:17.396Z,4.33
2022-08-16T16:55:51.790Z,5.10
2022-08-16T16:58:38.860Z,4.90
2022-08-16T17:01:09.448Z,5.00
2022-08-16T17:03:38.504Z,4.40
2022-08-16T17:06:10.149Z,6.57
2022-08-16T17:08:40.642Z,5.30
2022-08-16T17:11:11.677Z,5.20
2022-08-16T17:13:41.888Z,5.13
2022-08-16T17:16:18.606Z,4.97
2022-08-16T17:19:15.531Z,5.10
2022-08-16T17:21:36.863Z,4.87
2022-08-16T17:24:17.658Z,5.53
2022-08-16T17:26:49.324Z,5.17
2022-08-16T17:29:30.701Z,5.40
2022-08-16T17:32:02.607Z,4.93
2022-08-16T17:34:50.920Z,6.57
2022-08-16T17:37:22.112Z,4.83
2022-08-16T17:40:03.811Z,5.30
2022-08-16T17:42:33.844Z,4.70
2022-08-16T17:45:02.179Z,6.00
2022-08-16T17:47:30.526Z,5.47
2022-08-16T17:49:58.945Z,5.40
2022-08-16T17:52:28.801Z,5.50
2022-08-16T17:54:58.251Z,5.33
2022-08-16T17:57:27.507Z,5.43
2022-08-16T17:59:58.459Z,7.07
2022-08-16T18:02:43.776Z,6.87
2022-08-16T18:05:16.162Z,5.33
2022-08-16T18:07:46.382Z,5.30
2022-08-16T18:10:18.012Z,6.13
2022-08-16T18:13:01.850Z,5.57
2022-08-16T18:15:32.882Z,5.33
2022-08-16T18:18:01.989Z,6.30
2022-08-16T18:20:47.785Z,5.60
2022-08-16T18:23:18.972Z,6.97
2022-08-16T18:25:53.007Z,5.67
2022-08-16T18:28:21.988Z,6.90
2022-08-16T18:30:56.201Z,6.20
2022-08-16T18:33:28.659Z,6.03
2022-08-16T18:35:58.055Z,5.97
2022-08-16T18:38:27.045Z,6.40
2022-08-16T18:40:56.127Z,6.80
2022-08-16T18:44:23.058Z,6.00
2022-08-16T18:46:15.410Z,8.00
2022-08-16T18:48:44.112Z,6.20
2022-08-16T18:51:19.148Z,6.40
2022-08-16T18:53:49.854Z,7.23
2022-08-16T18:56:18.118Z,6.80
2022-08-16T18:58:46.587Z,8.37
2022-08-16T19:01:16.441Z,8.20
2022-08-16T19:03:44.887Z,6.23
2022-08-16T19:06:15.313Z,6.37
2022-08-16T19:08:45.656Z,6.80
2022-08-16T19:11:19.004Z,9.27
2022-08-16T19:13:47.732Z,5.97
2022-08-16T19:16:17.758Z,6.47
2022-08-16T19:18:50.642Z,6.77
2022-08-16T19:21:19.144Z,7.10
2022-08-16T19:23:47.411Z,6.90
2022-08-16T19:26:25.749Z,7.57
2022-08-16T19:28:58.758Z,7.80
2022-08-16T19:31:32.067Z,8.53
2022-08-16T19:34:00.533Z,6.97
2022-08-16T19:36:33.981Z,5.90
2022-08-16T19:39:08.825Z,6.67
2022-08-16T19:41:40.227Z,6.87
2022-08-16T19:44:08.946Z,7.33
2022-08-16T19:46:38.607Z,7.20
2022-08-16T19:49:07.238Z,9.70
2022-08-16T19:51:35.942Z,7.20
2022-08-16T19:54:06.779Z,6.70
2022-08-16T19:56:36.465Z,7.13
2022-08-16T19:59:21.934Z,6.70
2022-08-16T20:01:53.065Z,6.93
2022-08-16T20:04:22.663Z,6.50
2022-08-16T20:06:52.520Z,14.40
2022-08-16T20:09:21.457Z,6.63
2022-08-16T20:11:52.485Z,6.40
2022-08-16T20:14:25.506Z,8.57
2022-08-16T20:16:59.178Z,8.50
2022-08-16T20:19:28.365Z,7.13
2022-08-16T20:21:59.188Z,6.13
2022-08-16T20:24:34.703Z,6.23
2022-08-16T20:27:07.472Z,7.03
2022-08-16T20:29:37.111Z,6.80
2022-08-16T20:32:08.452Z,6.90
2022-08-16T20:34:36.937Z,7.47
2022-08-16T20:37:06.198Z,6.47
2022-08-16T20:39:34.717Z,6.80
2022-08-16T20:42:03.038Z,6.90
2022-08-16T20:44:31.334Z,7.43
2022-08-16T20:46:59.594Z,7.50
2022-08-16T20:49:29.540Z,8.73
2022-08-16T20:51:59.681Z,8.03
2022-08-16T20:54:28.644Z,6.73
2022-08-16T20:56:56.893Z,6.90
2022-08-16T20:59:25.156Z,8.10
2022-08-16T21:01:53.617Z,7.17
2022-08-16T21:04:23.443Z,6.93
2022-08-16T21:06:55.141Z,6.40
2022-08-16T21:09:25.139Z,6.80
2022-08-16T21:11:54.374Z,7.80
2022-08-16T21:14:22.724Z,7.50
2022-08-16T21:16:51.199Z,7.20
2022-08-16T21:19:20.033Z,6.83
2022-08-16T21:21:48.523Z,7.30
2022-08-16T21:24:18.193Z,9.37
2022-08-16T21:26:50.976Z,7.00
2022-08-16T21:29:27.890Z,7.10
2022-08-16T21:32:11.886Z,6.43
2022-08-16T21:34:40.393Z,6.37
2022-08-16T21:37:08.627Z,7.63
2022-08-16T21:39:38.360Z,7.80
2022-08-16T21:42:11.936Z,6.87
2022-08-16T21:44:40.776Z,6.70
2022-08-16T21:47:09.258Z,7.90
2022-08-16T21:49:37.805Z,7.77
2022-08-16T21:52:07.604Z,6.60
2022-08-16T21:54:36.405Z,7.27
2022-08-16T21:57:10.739Z,8.20
2022-08-16T21:59:39.631Z,7.80
2022-08-16T22:02:08.151Z,7.63
2022-08-16T22:04:38.913Z,9.27
2022-08-16T22:07:08.142Z,7.10
2022-08-16T22:09:36.901Z,7.20
2022-08-16T22:12:07.502Z,10.60
2022-08-16T22:14:35.720Z,7.00
2022-08-16T22:17:03.949Z,8.90
2022-08-16T22:19:32.158Z,6.13
2022-08-16T22:22:01.711Z,7.07
2022-08-16T22:24:30.157Z,7.80
2022-08-16T22:26:58.365Z,7.70
2022-08-16T22:29:27.951Z,7.53
2022-08-16T22:31:56.178Z,8.07
2022-08-16T22:34:24.518Z,9.00
2022-08-16T22:36:53.773Z,7.20
2022-08-16T22:39:21.960Z,7.40
2022-08-16T22:41:50.514Z,7.27
2022-08-16T22:44:18.980Z,7.60
2022-08-16T22:46:48.644Z,8.20
2022-08-16T22:49:17.069Z,9.70
2022-08-16T22:51:45.272Z,7.43
2022-08-16T22:54:47.413Z,8.00
2022-08-16T22:57:01.963Z,7.17
2022-08-16T22:59:32.007Z,7.43
2022-08-16T23:02:04.349Z,8.40
2022-08-16T23:04:32.904Z,7.30
2022-08-16T23:07:01.220Z,8.00
2022-08-16T23:09:30.421Z,7.33
2022-08-16T23:12:02.729Z,8.70
2022-08-16T23:14:31.040Z,11.80
2022-08-16T23:16:59.214Z,8.17
2022-08-16T23:19:29.540Z,8.30
2022-08-16T23:21:58.059Z,7.73
2022-08-16T23:24:27.492Z,7.63
2022-08-16T23:26:55.682Z,8.60
2022-08-16T23:29:26.499Z,7.70
2022-08-16T23:31:56.899Z,8.43
2022-08-16T23:34:26.848Z,8.03
2022-08-16T23:36:56.922Z,7.47
2022-08-16T23:39:25.597Z,7.23
2022-08-16T23:41:53.892Z,7.73
2022-08-16T23:44:56.369Z,8.03
2022-08-16T23:47:10.967Z,9.33
2022-08-16T23:49:56.345Z,7.57
2022-08-16T23:52:40.576Z,7.83
2022-08-16T23:55:17.657Z,7.73
2022-08-16T23:57:47.412Z,6.87
